createdAt,value
2019-01-09T00:00:32.479Z,4.79
2019-01-09T00:01:25.231Z,4.81
2019-01-09T00:02:00.654Z,4.80
2019-01-09T00:02:36.123Z,4.89
2019-01-09T00:03:11.516Z,4.92
2019-01-09T00:03:47.208Z,4.85
2019-01-09T00:04:22.585Z,4.82
2019-01-09T00:04:58.079Z,4.83
2019-01-09T00:05:33.587Z,4.81
2019-01-09T00:06:08.999Z,4.88
2019-01-09T00:06:44.463Z,4.84
2019-01-09T00:07:20.483Z,4.83
2019-01-09T00:07:56.010Z,4.81
2019-01-09T00:08:31.665Z,4.83
2019-01-09T00:09:08.290Z,4.83
2019-01-09T00:09:43.709Z,4.86
2019-01-09T00:10:19.455Z,4.92
2019-01-09T00:10:55.152Z,5.02
2019-01-09T00:11:30.805Z,4.99
2019-01-09T00:12:06.213Z,5.00
2019-01-09T00:12:41.883Z,4.98
2019-01-09T00:13:17.284Z,5.07
2019-01-09T00:13:53.105Z,5.11
2019-01-09T00:14:28.792Z,5.14
2019-01-09T00:15:04.446Z,5.17
2019-01-09T00:15:39.974Z,5.15
2019-01-09T00:16:15.351Z,5.07
2019-01-09T00:16:50.730Z,4.99
2019-01-09T00:17:26.166Z,4.99
2019-01-09T00:18:01.615Z,5.00
2019-01-09T00:18:37.624Z,5.00
2019-01-09T00:19:13.300Z,5.11
2019-01-09T00:19:48.768Z,5.12
2019-01-09T00:20:24.402Z,5.20
2019-01-09T00:21:00.067Z,5.13
2019-01-09T00:21:36.076Z,5.08
2019-01-09T00:22:12.052Z,5.13
2019-01-09T00:22:47.772Z,5.14
2019-01-09T00:23:23.871Z,5.10
2019-01-09T00:24:00.392Z,5.03
2019-01-09T00:24:35.860Z,5.08
2019-01-09T00:25:11.599Z,5.12
2019-01-09T00:25:47.501Z,5.11
2019-01-09T00:26:23.164Z,5.17
2019-01-09T00:26:59.279Z,5.17
2019-01-09T00:27:34.765Z,5.15
2019-01-09T00:28:10.194Z,5.17
2019-01-09T00:28:46.342Z,5.19
2019-01-09T00:29:22.015Z,5.18
2019-01-09T00:29:57.799Z,5.13
2019-01-09T00:30:33.563Z,5.11
2019-01-09T00:31:09.209Z,5.10
2019-01-09T00:31:44.601Z,5.07
2019-01-09T00:32:20.960Z,5.07
2019-01-09T00:32:56.908Z,5.08
2019-01-09T00:33:32.292Z,5.04
2019-01-09T00:34:07.751Z,5.06
2019-01-09T00:34:43.718Z,5.09
2019-01-09T00:35:20.090Z,4.98
2019-01-09T00:35:55.656Z,4.98
2019-01-09T00:36:31.565Z,5.07
2019-01-09T00:37:07.572Z,5.09
2019-01-09T00:37:43.832Z,5.07
2019-01-09T00:38:19.396Z,5.15
2019-01-09T00:38:55.118Z,5.08
2019-01-09T00:39:30.904Z,5.00
2019-01-09T00:40:07.122Z,4.97
2019-01-09T00:40:42.811Z,4.96
2019-01-09T00:41:18.612Z,4.94
2019-01-09T00:41:54.288Z,4.97
2019-01-09T00:42:30.590Z,4.98
2019-01-09T00:43:06.064Z,4.99
2019-01-09T00:43:41.928Z,4.99
2019-01-09T00:44:17.685Z,4.99
2019-01-09T00:44:53.188Z,5.14
2019-01-09T00:45:28.738Z,5.16
2019-01-09T00:46:04.282Z,5.06
2019-01-09T00:46:40.220Z,4.96
2019-01-09T00:47:15.853Z,5.07
2019-01-09T00:47:51.582Z,5.04
2019-01-09T00:48:26.981Z,5.07
2019-01-09T00:49:02.842Z,5.08
2019-01-09T00:49:38.762Z,4.99
2019-01-09T00:50:14.663Z,4.94
2019-01-09T00:50:50.321Z,4.98
2019-01-09T00:51:27.272Z,5.01
2019-01-09T00:52:02.789Z,4.95
2019-01-09T00:52:38.354Z,4.92
2019-01-09T00:53:13.830Z,4.97
2019-01-09T00:53:50.060Z,4.92
2019-01-09T00:54:25.446Z,4.96
2019-01-09T00:55:01.292Z,4.98
2019-01-09T00:55:36.716Z,4.94
2019-01-09T00:56:12.174Z,5.04
2019-01-09T00:56:47.597Z,5.13
2019-01-09T00:57:22.986Z,5.04
2019-01-09T00:57:58.663Z,5.06
2019-01-09T00:58:34.358Z,4.90
2019-01-09T00:59:10.292Z,4.86
2019-01-09T00:59:45.670Z,4.85
2019-01-09T01:00:21.801Z,4.87
2019-01-09T01:00:57.220Z,4.84
2019-01-09T01:01:32.646Z,4.87
2019-01-09T01:02:47.044Z,4.82
2019-01-09T01:04:14.781Z,4.75
2019-01-09T01:05:22.995Z,4.70
2019-01-09T01:06:43.871Z,4.79
2019-01-09T01:07:57.710Z,4.67
2019-01-09T01:09:16.495Z,4.70
2019-01-09T01:10:28.810Z,4.75
2019-01-09T01:11:37.769Z,4.72
2019-01-09T01:12:53.354Z,4.73
2019-01-09T01:13:53.824Z,4.78
2019-01-09T01:15:04.044Z,4.73
2019-01-09T01:16:19.161Z,4.70
2019-01-09T01:17:26.248Z,4.66
2019-01-09T01:18:32.028Z,4.48
2019-01-09T01:19:47.252Z,4.57
2019-01-09T01:20:57.192Z,4.46
2019-01-09T01:21:41.001Z,4.36
2019-01-09T01:23:09.362Z,4.37
2019-01-09T01:24:27.935Z,4.37
2019-01-09T01:25:43.888Z,4.31
2019-01-09T01:27:27.887Z,4.21
2019-01-09T01:28:37.145Z,4.08
2019-01-09T01:29:47.359Z,4.07
2019-01-09T01:30:55.042Z,4.07
2019-01-09T01:32:07.425Z,4.00
2019-01-09T01:33:12.123Z,4.05
2019-01-09T01:34:13.966Z,4.02
2019-01-09T01:35:45.415Z,4.01
2019-01-09T01:37:10.062Z,4.03
2019-01-09T01:38:47.746Z,4.03
2019-01-09T01:39:45.009Z,4.02
2019-01-09T01:40:44.264Z,4.04
2019-01-09T01:42:00.565Z,4.01
2019-01-09T01:43:11.335Z,4.04
2019-01-09T01:44:14.574Z,4.03
2019-01-09T01:45:08.482Z,4.00
2019-01-09T01:45:57.473Z,3.93
2019-01-09T01:47:03.377Z,3.94
2019-01-09T01:48:11.570Z,3.93
2019-01-09T01:49:24.853Z,4.08
2019-01-09T01:50:24.773Z,4.08
2019-01-09T01:51:49.474Z,4.00
2019-01-09T01:53:09.399Z,4.01
2019-01-09T01:54:24.917Z,3.93
2019-01-09T01:55:25.409Z,3.90
2019-01-09T01:56:38.437Z,3.91
2019-01-09T01:58:10.133Z,3.92
2019-01-09T01:59:19.817Z,3.93
2019-01-09T02:00:37.258Z,4.19
2019-01-09T02:01:41.635Z,4.08
2019-01-09T02:02:35.151Z,4.03
2019-01-09T02:03:53.118Z,4.06
2019-01-09T02:05:18.623Z,4.06
2019-01-09T02:06:04.304Z,4.08
2019-01-09T02:07:31.290Z,4.17
2019-01-09T02:08:32.159Z,4.20
2019-01-09T02:09:39.760Z,4.17
2019-01-09T02:10:51.687Z,4.30
2019-01-09T02:12:20.206Z,4.14
2019-01-09T02:13:35.036Z,4.17
2019-01-09T02:14:57.753Z,4.21
2019-01-09T02:16:20.007Z,4.38
2019-01-09T02:17:48.012Z,4.31
2019-01-09T02:18:38.235Z,4.37
2019-01-09T02:19:28.038Z,4.35
2019-01-09T02:20:49.384Z,4.26
2019-01-09T02:21:36.360Z,4.30
2019-01-09T02:23:03.754Z,4.32
2019-01-09T02:24:27.706Z,4.35
2019-01-09T02:25:29.376Z,4.39
2019-01-09T02:26:46.974Z,4.43
2019-01-09T02:27:45.185Z,4.57
2019-01-09T02:29:07.908Z,4.45
2019-01-09T02:30:36.083Z,4.51
2019-01-09T02:31:55.202Z,4.49
2019-01-09T02:32:34.325Z,4.46
2019-01-09T02:33:09.853Z,4.45
2019-01-09T02:33:45.507Z,4.55
2019-01-09T02:34:20.949Z,4.50
2019-01-09T02:34:56.345Z,4.47
2019-01-09T02:35:31.780Z,4.45
2019-01-09T02:36:13.399Z,4.51
2019-01-09T02:36:44.708Z,4.48
2019-01-09T02:37:20.361Z,4.46
2019-01-09T02:37:55.755Z,4.46
2019-01-09T02:38:31.428Z,4.47
2019-01-09T02:39:07.214Z,4.51
2019-01-09T02:39:42.620Z,4.49
2019-01-09T02:40:18.011Z,4.59
2019-01-09T02:40:53.460Z,4.52
2019-01-09T02:41:29.125Z,4.49
2019-01-09T02:42:04.534Z,4.47
2019-01-09T02:42:40.257Z,4.45
2019-01-09T02:43:15.671Z,4.49
2019-01-09T02:43:51.182Z,4.51
2019-01-09T02:44:32.185Z,4.50
2019-01-09T02:45:03.712Z,4.46
2019-01-09T02:45:39.160Z,4.63
2019-01-09T02:46:14.636Z,4.67
2019-01-09T02:46:50.007Z,4.59
2019-01-09T02:47:25.430Z,4.53
2019-01-09T02:48:01.121Z,4.57
2019-01-09T02:48:36.864Z,4.68
2019-01-09T02:49:12.244Z,4.56
2019-01-09T02:49:47.888Z,4.59
2019-01-09T02:50:23.277Z,4.54
2019-01-09T02:50:58.996Z,4.52
2019-01-09T02:51:34.702Z,4.54
2019-01-09T02:52:10.156Z,4.48
2019-01-09T02:52:45.538Z,4.52
2019-01-09T02:53:20.934Z,4.54
2019-01-09T02:53:56.581Z,4.55
2019-01-09T02:54:32.257Z,4.51
2019-01-09T02:55:08.756Z,4.48
2019-01-09T02:55:44.265Z,4.53
2019-01-09T02:56:19.983Z,4.49
2019-01-09T02:56:55.384Z,4.47
2019-01-09T02:57:30.839Z,4.47
2019-01-09T02:58:07.940Z,4.44
2019-01-09T02:58:43.614Z,4.49
2019-01-09T02:59:19.233Z,4.52
2019-01-09T02:59:54.622Z,4.48
2019-01-09T03:00:30.094Z,4.48
2019-01-09T03:01:05.482Z,4.50
2019-01-09T03:01:40.917Z,4.54
2019-01-09T03:02:16.300Z,4.51
2019-01-09T03:02:52.023Z,4.50
2019-01-09T03:03:27.423Z,4.55
2019-01-09T03:04:03.407Z,4.53
2019-01-09T03:04:38.788Z,4.50
2019-01-09T03:05:14.766Z,4.51
2019-01-09T03:05:50.448Z,4.48
2019-01-09T03:06:26.100Z,4.51
2019-01-09T03:07:01.592Z,4.55
2019-01-09T03:07:37.054Z,4.52
2019-01-09T03:08:12.500Z,4.49
2019-01-09T03:08:47.899Z,4.52
2019-01-09T03:09:23.284Z,4.55
2019-01-09T03:09:58.695Z,4.51
2019-01-09T03:10:34.687Z,4.55
2019-01-09T03:11:10.142Z,4.50
2019-01-09T03:11:45.826Z,4.45
2019-01-09T03:12:21.247Z,4.46
2019-01-09T03:12:56.799Z,4.41
2019-01-09T03:13:32.552Z,4.44
2019-01-09T03:14:08.247Z,4.42
2019-01-09T03:14:43.645Z,4.42
2019-01-09T03:15:19.050Z,4.43
2019-01-09T03:15:54.495Z,4.44
2019-01-09T03:16:30.104Z,4.48
2019-01-09T03:17:05.493Z,4.45
2019-01-09T03:17:40.915Z,4.51
2019-01-09T03:18:16.311Z,4.45
2019-01-09T03:18:52.293Z,4.41
2019-01-09T03:19:27.703Z,4.42
2019-01-09T03:20:03.219Z,4.45
2019-01-09T03:20:38.645Z,4.52
2019-01-09T03:21:14.315Z,4.50
2019-01-09T03:21:49.935Z,4.46
2019-01-09T03:22:25.595Z,4.48
2019-01-09T03:23:01.034Z,4.48
2019-01-09T03:23:36.454Z,4.55
2019-01-09T03:24:11.862Z,4.53
2019-01-09T03:24:47.357Z,4.52
2019-01-09T03:25:23.082Z,4.59
2019-01-09T03:25:58.534Z,4.58
2019-01-09T03:26:33.961Z,4.50
2019-01-09T03:27:09.766Z,4.51
2019-01-09T03:27:45.424Z,4.45
2019-01-09T03:28:21.135Z,4.49
2019-01-09T03:28:56.554Z,4.53
2019-01-09T03:29:32.385Z,4.57
2019-01-09T03:30:08.373Z,4.50
2019-01-09T03:30:43.864Z,4.50
2019-01-09T03:31:19.646Z,4.46
2019-01-09T03:31:55.042Z,4.41
2019-01-09T03:32:30.480Z,4.42
2019-01-09T03:33:06.096Z,4.44
2019-01-09T03:33:41.483Z,4.41
2019-01-09T03:34:17.144Z,4.38
2019-01-09T03:34:52.543Z,4.50
2019-01-09T03:35:28.487Z,4.40
2019-01-09T03:36:04.062Z,4.45
2019-01-09T03:36:39.452Z,4.44
2019-01-09T03:37:15.389Z,4.45
2019-01-09T03:37:50.783Z,4.44
2019-01-09T03:38:26.195Z,4.41
2019-01-09T03:39:01.928Z,4.38
2019-01-09T03:39:37.946Z,4.31
2019-01-09T03:40:13.351Z,4.40
2019-01-09T03:40:49.097Z,4.35
2019-01-09T03:41:24.498Z,4.38
2019-01-09T03:41:59.951Z,4.38
2019-01-09T03:42:35.662Z,4.38
2019-01-09T03:43:11.081Z,4.33
2019-01-09T03:43:46.769Z,4.32
2019-01-09T03:44:22.240Z,4.29
2019-01-09T03:44:57.979Z,4.33
2019-01-09T03:45:33.787Z,4.35
2019-01-09T03:46:09.522Z,4.40
2019-01-09T03:46:45.159Z,4.35
2019-01-09T03:47:20.552Z,4.33
2019-01-09T03:47:56.214Z,4.38
2019-01-09T03:48:31.643Z,4.30
2019-01-09T03:49:07.159Z,4.25
2019-01-09T03:49:42.543Z,4.19
2019-01-09T03:50:18.004Z,4.23
2019-01-09T03:50:53.574Z,4.30
2019-01-09T03:51:29.018Z,4.26
2019-01-09T03:52:05.277Z,4.25
2019-01-09T03:52:40.687Z,4.26
2019-01-09T03:53:16.324Z,4.23
2019-01-09T03:53:52.019Z,4.22
2019-01-09T03:54:27.738Z,4.14
2019-01-09T03:55:03.196Z,4.15
2019-01-09T03:55:38.887Z,4.12
2019-01-09T03:56:14.288Z,4.14
2019-01-09T03:56:49.653Z,4.19
2019-01-09T03:57:25.641Z,4.15
2019-01-09T03:58:01.060Z,4.19
2019-01-09T03:58:36.468Z,4.15
2019-01-09T03:59:12.189Z,4.12
2019-01-09T03:59:48.109Z,4.17
2019-01-09T04:00:23.834Z,4.13
2019-01-09T04:00:59.299Z,4.16
2019-01-09T04:01:34.759Z,4.16
2019-01-09T04:02:10.184Z,4.22
2019-01-09T04:02:45.900Z,4.20
2019-01-09T04:03:21.266Z,4.21
2019-01-09T04:03:57.004Z,4.34
2019-01-09T04:04:32.414Z,4.36
2019-01-09T04:05:07.843Z,4.21
2019-01-09T04:05:43.507Z,4.17
2019-01-09T04:06:18.938Z,4.12
2019-01-09T04:06:54.652Z,4.14
2019-01-09T04:07:30.197Z,4.08
2019-01-09T04:08:05.596Z,4.11
2019-01-09T04:08:40.964Z,4.12
2019-01-09T04:09:16.679Z,4.08
2019-01-09T04:09:52.372Z,4.08
2019-01-09T04:10:27.774Z,4.11
2019-01-09T04:11:03.201Z,4.07
2019-01-09T04:11:39.160Z,4.04
2019-01-09T04:12:14.552Z,4.01
2019-01-09T04:12:50.276Z,4.04
2019-01-09T04:13:25.660Z,4.00
2019-01-09T04:14:01.359Z,4.04
2019-01-09T04:14:37.033Z,4.02
2019-01-09T04:15:12.701Z,4.03
2019-01-09T04:15:48.076Z,4.11
2019-01-09T04:16:23.773Z,4.07
2019-01-09T04:16:59.172Z,4.14
2019-01-09T04:17:34.583Z,4.17
2019-01-09T04:18:10.256Z,4.10
2019-01-09T04:18:45.732Z,4.12
2019-01-09T04:19:21.392Z,4.08
2019-01-09T04:19:56.814Z,4.04
2019-01-09T04:20:32.259Z,4.03
2019-01-09T04:21:07.941Z,4.01
2019-01-09T04:21:43.696Z,3.96
2019-01-09T04:22:20.520Z,3.92
2019-01-09T04:22:56.312Z,4.02
2019-01-09T04:23:32.013Z,3.90
2019-01-09T04:24:07.448Z,3.84
2019-01-09T04:24:43.109Z,3.78
2019-01-09T04:25:20.112Z,3.83
2019-01-09T04:25:55.467Z,3.84
2019-01-09T04:26:30.937Z,3.75
2019-01-09T04:27:06.380Z,3.77
2019-01-09T04:27:41.773Z,3.75
2019-01-09T04:28:17.160Z,3.70
2019-01-09T04:28:52.535Z,3.63
2019-01-09T04:29:28.190Z,3.56
2019-01-09T04:30:03.697Z,3.55
2019-01-09T04:30:39.104Z,3.57
2019-01-09T04:31:14.502Z,3.58
2019-01-09T04:31:50.236Z,3.52
2019-01-09T04:32:25.630Z,3.58
2019-01-09T04:33:01.402Z,3.63
2019-01-09T04:33:36.862Z,3.57
2019-01-09T04:34:12.343Z,3.50
2019-01-09T04:34:47.736Z,3.48
2019-01-09T04:35:23.408Z,3.53
2019-01-09T04:35:58.835Z,3.50
2019-01-09T04:36:34.602Z,3.44
2019-01-09T04:37:10.232Z,3.57
2019-01-09T04:37:45.667Z,3.38
2019-01-09T04:38:21.076Z,3.35
2019-01-09T04:38:56.458Z,3.35
2019-01-09T04:39:31.877Z,3.36
2019-01-09T04:40:07.408Z,3.35
2019-01-09T04:40:42.837Z,3.36
2019-01-09T04:41:18.253Z,3.37
2019-01-09T04:41:54.031Z,3.40
2019-01-09T04:42:29.522Z,3.39
2019-01-09T04:43:04.977Z,3.36
2019-01-09T04:43:40.397Z,3.42
2019-01-09T04:44:16.356Z,3.46
2019-01-09T04:44:51.756Z,3.41
2019-01-09T04:45:27.146Z,3.42
2019-01-09T04:46:02.943Z,3.47
2019-01-09T04:46:38.723Z,3.39
2019-01-09T04:47:14.101Z,3.34
2019-01-09T04:47:49.848Z,3.41
2019-01-09T04:48:25.229Z,3.38
2019-01-09T04:49:00.921Z,3.38
2019-01-09T04:49:36.361Z,3.41
2019-01-09T04:50:11.741Z,3.43
2019-01-09T04:50:47.669Z,3.39
2019-01-09T04:51:23.071Z,3.39
2019-01-09T04:51:58.507Z,3.41
2019-01-09T04:52:33.908Z,3.42
2019-01-09T04:53:09.319Z,3.43
2019-01-09T04:53:44.705Z,3.42
2019-01-09T04:54:20.626Z,3.42
2019-01-09T04:54:55.996Z,3.43
2019-01-09T04:55:31.418Z,3.46
2019-01-09T04:56:07.424Z,3.43
2019-01-09T04:56:43.136Z,3.44
2019-01-09T04:57:18.805Z,3.42
2019-01-09T04:57:54.182Z,3.43
2019-01-09T04:58:29.591Z,3.41
2019-01-09T04:59:04.989Z,3.39
2019-01-09T04:59:40.371Z,3.41
2019-01-09T05:00:15.765Z,3.40
2019-01-09T05:00:51.705Z,3.41
2019-01-09T05:01:27.424Z,3.38
2019-01-09T05:02:02.924Z,3.33
2019-01-09T05:02:38.392Z,3.32
2019-01-09T05:03:13.779Z,3.35
2019-01-09T05:03:49.155Z,3.30
2019-01-09T05:04:24.553Z,3.29
2019-01-09T05:05:00.369Z,3.27
2019-01-09T05:05:35.770Z,3.25
2019-01-09T05:06:11.173Z,3.23
2019-01-09T05:06:46.990Z,3.20
2019-01-09T05:07:22.394Z,3.20
2019-01-09T05:07:58.680Z,3.20
2019-01-09T05:08:34.112Z,3.24
2019-01-09T05:09:09.622Z,3.17
2019-01-09T05:09:45.351Z,3.10
2019-01-09T05:10:21.014Z,3.12
2019-01-09T05:10:56.699Z,3.07
2019-01-09T05:11:32.388Z,3.07
2019-01-09T05:12:07.868Z,3.02
2019-01-09T05:12:43.242Z,3.01
2019-01-09T05:13:18.672Z,3.01
2019-01-09T05:13:54.070Z,3.01
2019-01-09T05:14:29.513Z,3.01
2019-01-09T05:15:05.166Z,3.04
2019-01-09T05:15:40.576Z,3.00
2019-01-09T05:16:16.010Z,3.14
2019-01-09T05:16:51.757Z,3.16
2019-01-09T05:17:27.155Z,3.12
2019-01-09T05:18:02.952Z,2.88
2019-01-09T05:18:38.405Z,2.86
2019-01-09T05:19:13.794Z,2.82
2019-01-09T05:19:49.223Z,2.83
2019-01-09T05:20:24.603Z,2.78
2019-01-09T05:21:00.250Z,2.69
2019-01-09T05:21:35.656Z,2.71
2019-01-09T05:22:11.121Z,2.69
2019-01-09T05:22:46.797Z,2.70
2019-01-09T05:23:22.463Z,2.64
2019-01-09T05:23:57.936Z,2.69
2019-01-09T05:24:33.404Z,2.86
2019-01-09T05:25:08.852Z,2.73
2019-01-09T05:25:44.671Z,2.69
2019-01-09T05:26:20.156Z,2.75
2019-01-09T05:26:55.905Z,2.69
2019-01-09T05:27:31.673Z,2.72
2019-01-09T05:28:07.446Z,2.67
2019-01-09T05:28:42.842Z,2.71
2019-01-09T05:29:18.533Z,2.73
2019-01-09T05:29:53.956Z,2.75
2019-01-09T05:30:29.339Z,2.69
2019-01-09T05:31:07.620Z,2.74
2019-01-09T05:31:42.256Z,2.69
2019-01-09T05:32:17.675Z,2.71
2019-01-09T05:32:53.106Z,2.74
2019-01-09T05:33:28.954Z,2.85
2019-01-09T05:34:04.609Z,2.92
2019-01-09T05:34:40.023Z,2.95
2019-01-09T05:35:15.440Z,2.86
2019-01-09T05:35:50.847Z,2.78
2019-01-09T05:36:26.485Z,2.74
2019-01-09T05:37:09.360Z,2.67
2019-01-09T05:37:39.330Z,2.67
2019-01-09T05:38:15.007Z,2.73
2019-01-09T05:38:50.405Z,2.63
2019-01-09T05:39:26.133Z,2.57
2019-01-09T05:40:01.529Z,2.74
2019-01-09T05:40:36.934Z,2.71
2019-01-09T05:41:12.891Z,2.60
2019-01-09T05:41:48.291Z,2.52
2019-01-09T05:42:23.970Z,2.61
2019-01-09T05:42:59.695Z,2.59
2019-01-09T05:43:35.120Z,2.60
2019-01-09T05:44:10.535Z,2.61
2019-01-09T05:44:46.190Z,2.58
2019-01-09T05:45:21.616Z,2.58
2019-01-09T05:45:57.044Z,2.66
2019-01-09T05:46:32.447Z,2.54
2019-01-09T05:47:07.980Z,2.54
2019-01-09T05:47:43.703Z,2.47
2019-01-09T05:48:19.748Z,2.60
2019-01-09T05:48:55.407Z,2.51
2019-01-09T05:49:30.838Z,2.49
2019-01-09T05:50:06.374Z,2.47
2019-01-09T05:50:42.331Z,2.45
2019-01-09T05:51:17.724Z,2.60
2019-01-09T05:51:53.106Z,2.48
2019-01-09T05:52:28.573Z,2.47
2019-01-09T05:53:04.081Z,2.51
2019-01-09T05:53:39.968Z,2.47
2019-01-09T05:54:15.616Z,2.44
2019-01-09T05:54:51.439Z,2.46
2019-01-09T05:55:26.819Z,2.48
2019-01-09T05:56:02.549Z,2.50
2019-01-09T05:56:38.169Z,2.50
2019-01-09T05:57:13.836Z,2.50
2019-01-09T05:57:49.218Z,2.49
2019-01-09T05:58:24.616Z,2.61
2019-01-09T05:59:00.335Z,2.55
2019-01-09T05:59:35.761Z,2.68
2019-01-09T06:00:11.391Z,2.70
2019-01-09T06:00:47.043Z,2.65
2019-01-09T06:01:22.547Z,2.58
2019-01-09T06:01:57.922Z,2.49
2019-01-09T06:02:33.382Z,2.62
2019-01-09T06:03:08.817Z,2.61
2019-01-09T06:03:44.175Z,2.65
2019-01-09T06:04:19.908Z,2.62
2019-01-09T06:04:55.330Z,2.63
2019-01-09T06:05:30.998Z,2.73
2019-01-09T06:06:06.449Z,2.79
2019-01-09T06:06:41.844Z,2.75
2019-01-09T06:07:18.608Z,2.76
2019-01-09T06:07:54.233Z,2.76
2019-01-09T06:08:30.024Z,2.77
2019-01-09T06:09:06.708Z,2.74
2019-01-09T06:09:42.111Z,2.69
2019-01-09T06:10:17.501Z,2.76
2019-01-09T06:10:53.185Z,2.81
2019-01-09T06:11:29.199Z,2.76
2019-01-09T06:12:04.623Z,2.72
2019-01-09T06:12:40.049Z,2.64
2019-01-09T06:13:15.751Z,2.59
2019-01-09T06:13:51.144Z,2.61
2019-01-09T06:14:26.781Z,2.55
2019-01-09T06:15:02.229Z,2.60
2019-01-09T06:15:37.616Z,2.59
2019-01-09T06:16:13.306Z,2.62
2019-01-09T06:16:48.681Z,2.76
2019-01-09T06:17:24.363Z,2.76
2019-01-09T06:17:59.886Z,2.70
2019-01-09T06:18:35.316Z,2.71
2019-01-09T06:19:10.739Z,2.70
2019-01-09T06:19:46.742Z,2.69
2019-01-09T06:20:22.170Z,2.83
2019-01-09T06:20:57.570Z,2.80
2019-01-09T06:21:32.998Z,2.78
2019-01-09T06:22:08.803Z,2.83
2019-01-09T06:22:44.535Z,2.75
2019-01-09T06:23:20.276Z,2.71
2019-01-09T06:23:55.707Z,2.75
2019-01-09T06:24:31.761Z,2.71
2019-01-09T06:25:07.361Z,2.78
2019-01-09T06:25:42.780Z,2.73
2019-01-09T06:26:18.533Z,2.79
2019-01-09T06:26:54.302Z,2.82
2019-01-09T06:27:29.742Z,2.76
2019-01-09T06:28:05.222Z,2.73
2019-01-09T06:28:40.611Z,2.76
2019-01-09T06:29:16.025Z,2.75
2019-01-09T06:29:51.694Z,2.75
2019-01-09T06:30:27.121Z,2.75
2019-01-09T06:31:02.616Z,2.69
2019-01-09T06:31:38.093Z,2.72
2019-01-09T06:32:13.765Z,2.76
2019-01-09T06:32:49.484Z,2.83
2019-01-09T06:33:25.180Z,2.77
2019-01-09T06:34:00.962Z,2.85
2019-01-09T06:34:36.484Z,2.79
2019-01-09T06:35:12.472Z,2.83
2019-01-09T06:35:47.913Z,2.61
2019-01-09T06:36:23.420Z,2.81
2019-01-09T06:36:58.831Z,2.79
2019-01-09T06:37:34.607Z,2.81
2019-01-09T06:38:10.345Z,2.83
2019-01-09T06:38:45.738Z,2.91
2019-01-09T06:39:21.388Z,2.93
2019-01-09T06:39:56.795Z,2.92
2019-01-09T06:40:32.519Z,3.01
2019-01-09T06:41:08.192Z,3.00
2019-01-09T06:41:43.865Z,2.95
2019-01-09T06:42:19.553Z,3.00
2019-01-09T06:42:55.250Z,2.99
2019-01-09T06:43:31.016Z,2.99
2019-01-09T06:44:06.429Z,3.01
2019-01-09T06:44:41.812Z,3.04
2019-01-09T06:45:17.258Z,3.04
2019-01-09T06:45:52.678Z,3.06
2019-01-09T06:46:28.402Z,3.05
2019-01-09T06:47:03.885Z,3.10
2019-01-09T06:47:39.308Z,3.12
2019-01-09T06:48:15.012Z,3.12
2019-01-09T06:48:50.429Z,3.15
2019-01-09T06:49:26.049Z,3.12
2019-01-09T06:50:01.470Z,3.14
2019-01-09T06:50:36.929Z,3.17
2019-01-09T06:51:12.597Z,3.16
2019-01-09T06:51:47.983Z,3.22
2019-01-09T06:52:23.612Z,3.21
2019-01-09T06:52:59.374Z,3.18
2019-01-09T06:53:34.810Z,3.18
2019-01-09T06:54:10.214Z,3.29
2019-01-09T06:54:45.592Z,3.30
2019-01-09T06:55:20.943Z,3.26
2019-01-09T06:55:56.668Z,3.22
2019-01-09T06:56:32.094Z,3.24
2019-01-09T06:57:07.505Z,3.23
2019-01-09T06:57:43.158Z,3.24
2019-01-09T06:58:20.201Z,3.24
2019-01-09T06:58:55.689Z,3.23
2019-01-09T06:59:31.405Z,3.29
2019-01-09T07:00:08.123Z,3.32
2019-01-09T07:00:43.782Z,3.28
2019-01-09T07:01:19.435Z,3.32
2019-01-09T07:01:54.833Z,3.30
2019-01-09T07:02:30.279Z,3.27
2019-01-09T07:03:06.067Z,3.33
2019-01-09T07:03:41.436Z,3.36
2019-01-09T07:04:16.830Z,3.39
2019-01-09T07:04:52.529Z,3.42
2019-01-09T07:05:28.196Z,3.38
2019-01-09T07:06:03.689Z,3.38
2019-01-09T07:06:39.663Z,3.43
2019-01-09T07:07:15.039Z,3.40
2019-01-09T07:07:50.520Z,3.35
2019-01-09T07:08:26.546Z,3.34
2019-01-09T07:09:01.893Z,3.33
2019-01-09T07:09:37.552Z,3.32
2019-01-09T07:10:12.944Z,3.31
2019-01-09T07:10:48.318Z,3.34
2019-01-09T07:11:23.968Z,3.39
2019-01-09T07:11:59.944Z,3.40
2019-01-09T07:12:35.472Z,3.38
2019-01-09T07:13:10.931Z,3.35
2019-01-09T07:13:46.600Z,3.34
2019-01-09T07:14:22.009Z,3.42
2019-01-09T07:14:57.741Z,3.37
2019-01-09T07:15:33.487Z,3.36
2019-01-09T07:16:08.886Z,3.33
2019-01-09T07:16:44.320Z,3.39
2019-01-09T07:17:19.992Z,3.36
2019-01-09T07:17:55.398Z,3.36
2019-01-09T07:18:31.155Z,3.33
2019-01-09T07:19:06.591Z,3.38
2019-01-09T07:19:41.991Z,3.35
2019-01-09T07:20:17.426Z,3.28
2019-01-09T07:20:53.134Z,3.29
2019-01-09T07:21:28.575Z,3.27
2019-01-09T07:22:04.119Z,3.27
2019-01-09T07:22:40.070Z,3.28
2019-01-09T07:23:15.816Z,3.33
2019-01-09T07:23:51.515Z,3.28
2019-01-09T07:24:26.946Z,3.28
2019-01-09T07:25:02.409Z,3.28
2019-01-09T07:25:37.812Z,3.24
2019-01-09T07:26:13.475Z,3.27
2019-01-09T07:26:48.872Z,3.30
2019-01-09T07:27:24.259Z,3.38
2019-01-09T07:27:59.968Z,3.33
2019-01-09T07:28:35.464Z,3.32
2019-01-09T07:29:10.871Z,3.38
2019-01-09T07:29:46.254Z,3.36
2019-01-09T07:30:21.895Z,3.34
2019-01-09T07:30:57.289Z,3.34
2019-01-09T07:31:33.031Z,3.29
2019-01-09T07:32:08.716Z,3.31
2019-01-09T07:32:44.147Z,3.34
2019-01-09T07:33:19.801Z,3.29
2019-01-09T07:33:55.223Z,3.34
2019-01-09T07:34:30.713Z,3.29
2019-01-09T07:35:06.163Z,3.32
2019-01-09T07:35:41.561Z,3.29
2019-01-09T07:36:16.954Z,3.25
2019-01-09T07:36:52.898Z,3.24
2019-01-09T07:37:28.334Z,3.34
2019-01-09T07:38:04.379Z,3.31
2019-01-09T07:38:39.794Z,3.27
2019-01-09T07:39:16.935Z,3.27
2019-01-09T07:39:52.724Z,3.35
2019-01-09T07:40:28.129Z,3.34
2019-01-09T07:41:03.845Z,3.32
2019-01-09T07:41:39.239Z,3.28
2019-01-09T07:42:14.646Z,3.28
2019-01-09T07:42:50.053Z,3.30
2019-01-09T07:43:25.686Z,3.36
2019-01-09T07:44:01.179Z,3.41
2019-01-09T07:44:36.594Z,3.36
2019-01-09T07:45:11.969Z,3.44
2019-01-09T07:45:47.601Z,3.35
2019-01-09T07:46:22.991Z,3.38
2019-01-09T07:46:58.379Z,3.38
2019-01-09T07:47:33.798Z,3.41
2019-01-09T07:48:09.825Z,3.43
2019-01-09T07:48:45.565Z,3.40
2019-01-09T07:49:21.248Z,3.39
2019-01-09T07:49:56.666Z,3.39
2019-01-09T07:50:32.388Z,3.42
2019-01-09T07:51:07.809Z,3.40
2019-01-09T07:51:43.447Z,3.36
2019-01-09T07:52:18.870Z,3.38
2019-01-09T07:52:54.754Z,3.39
2019-01-09T07:53:30.493Z,3.39
2019-01-09T07:54:05.998Z,3.41
2019-01-09T07:54:41.979Z,3.38
2019-01-09T07:55:17.648Z,3.40
2019-01-09T07:55:53.306Z,3.40
2019-01-09T07:56:29.416Z,3.44
2019-01-09T07:57:04.886Z,3.44
2019-01-09T07:57:40.538Z,3.45
2019-01-09T07:58:16.676Z,3.44
2019-01-09T07:58:52.106Z,3.42
2019-01-09T07:59:27.772Z,3.47
2019-01-09T08:00:03.437Z,3.43
2019-01-09T08:00:38.825Z,3.44
2019-01-09T08:01:14.255Z,3.43
2019-01-09T08:01:50.199Z,3.43
2019-01-09T08:02:25.586Z,3.41
2019-01-09T08:03:01.077Z,3.48
2019-01-09T08:03:36.563Z,3.48
2019-01-09T08:04:12.084Z,3.54
2019-01-09T08:04:47.530Z,3.52
2019-01-09T08:05:22.958Z,3.48
2019-01-09T08:06:00.962Z,3.54
2019-01-09T08:06:36.463Z,3.47
2019-01-09T08:07:11.876Z,3.47
2019-01-09T08:07:53.846Z,3.49
2019-01-09T08:08:24.442Z,3.52
2019-01-09T08:08:59.909Z,3.58
2019-01-09T08:09:35.403Z,3.54
2019-01-09T08:10:11.207Z,3.54
2019-01-09T08:10:46.595Z,3.59
2019-01-09T08:11:21.977Z,3.63
2019-01-09T08:11:57.400Z,3.64
2019-01-09T08:12:32.885Z,3.63
2019-01-09T08:13:08.310Z,3.56
2019-01-09T08:13:43.768Z,3.61
2019-01-09T08:14:19.729Z,3.66
2019-01-09T08:14:55.149Z,3.69
2019-01-09T08:15:30.603Z,3.57
2019-01-09T08:16:06.294Z,3.58
2019-01-09T08:16:41.683Z,3.50
2019-01-09T08:17:17.076Z,3.53
2019-01-09T08:17:52.708Z,3.59
2019-01-09T08:18:28.216Z,3.63
2019-01-09T08:19:04.011Z,3.59
2019-01-09T08:19:39.416Z,3.59
2019-01-09T08:20:14.818Z,3.54
2019-01-09T08:20:50.240Z,3.61
2019-01-09T08:21:25.628Z,3.60
2019-01-09T08:22:01.147Z,3.59
2019-01-09T08:22:36.565Z,3.61
2019-01-09T08:23:11.964Z,3.61
2019-01-09T08:23:47.637Z,3.70
2019-01-09T08:24:23.359Z,3.65
2019-01-09T08:24:58.821Z,3.70
2019-01-09T08:25:34.803Z,3.66
2019-01-09T08:26:10.180Z,3.69
2019-01-09T08:26:45.658Z,3.65
2019-01-09T08:27:21.343Z,3.67
2019-01-09T08:27:57.071Z,3.72
2019-01-09T08:28:32.511Z,3.85
2019-01-09T08:29:08.058Z,3.80
2019-01-09T08:29:43.568Z,3.72
2019-01-09T08:30:18.939Z,3.66
2019-01-09T08:30:54.343Z,3.66
2019-01-09T08:31:30.150Z,3.80
2019-01-09T08:32:05.548Z,3.66
2019-01-09T08:32:41.544Z,3.70
2019-01-09T08:33:17.183Z,3.77
2019-01-09T08:33:52.937Z,3.73
2019-01-09T08:34:28.587Z,3.71
2019-01-09T08:35:04.142Z,3.73
2019-01-09T08:35:39.589Z,3.71
2019-01-09T08:36:14.977Z,3.67
2019-01-09T08:36:50.368Z,3.66
2019-01-09T08:37:25.769Z,3.67
2019-01-09T08:38:03.007Z,3.71
2019-01-09T08:38:38.351Z,3.76
2019-01-09T08:39:15.571Z,3.84
2019-01-09T08:39:51.148Z,3.99
2019-01-09T08:40:26.527Z,4.04